Time;durP1;ratioP1;P1;durP2;ratioP2;P2;SDS_P1;SDS_P2;PMS_P1;PMS_P2;Temp;Humidity;BMP_temperature;BMP_pressure;BME280_temperature;BME280_humidity;BME280_pressure;Samples;Min_cycle;Max_cycle;Signal;HPM_P1;HPM_P2
2023/09/10 00:00:09;;;;;;;2.17;1.97;;;;;;;17.83;76.08;99963.00;5077182;28;20484;-63
2023/09/10 00:02:40;;;;;;;1.63;1.52;;;;;;;17.80;76.17;99963.09;5077127;28;20048;-63
2023/09/10 00:05:09;;;;;;;0.95;0.90;;;;;;;17.84;76.06;99962.13;5077369;28;20071;-63
2023/09/10 00:07:39;;;;;;;1.88;1.35;;;;;;;17.85;76.26;99961.25;5077129;28;20084;-64
2023/09/10 00:10:09;;;;;;;1.48;1.25;;;;;;;17.85;76.12;99969.00;5077274;28;20089;-65
2023/09/10 00:12:37;;;;;;;1.35;0.90;;;;;;;17.83;76.06;99966.44;5077069;28;20040;-66
2023/09/10 00:15:07;;;;;;;3.03;0.97;;;;;;;17.85;76.22;99966.41;5076802;28;20048;-66
2023/09/10 00:17:36;;;;;;;1.65;1.13;;;;;;;17.86;76.05;99961.19;5076660;28;20052;-64
2023/09/10 00:20:10;;;;;;;1.23;1.13;;;;;;;17.86;76.23;99968.09;5076986;28;20037;-64
2023/09/10 00:22:42;;;;;;;1.95;1.38;;;;;;;17.86;76.35;99960.34;5076681;28;20273;-64
2023/09/10 00:25:11;;;;;;;0.93;0.85;;;;;;;17.79;76.33;99958.81;5076929;28;20131;-65
2023/09/10 00:27:39;;;;;;;2.35;1.67;;;;;;;17.76;76.42;99958.88;5076921;28;20040;-63
2023/09/10 00:30:09;;;;;;;1.33;0.98;;;;;;;17.68;76.43;99955.66;5058845;28;20512;-65
2023/09/10 00:32:38;;;;;;;1.00;0.90;;;;;;;17.66;76.24;99958.25;5076479;28;20048;-66
2023/09/10 00:35:09;;;;;;;7.15;2.42;;;;;;;17.69;76.24;99963.34;5076187;28;20084;-66
2023/09/10 00:37:38;;;;;;;0.77;0.77;;;;;;;17.69;76.41;99957.34;5075145;28;20059;-64
2023/09/10 00:40:09;;;;;;;1.23;1.00;;;;;;;17.64;75.90;99959.19;5076011;28;20032;-65
2023/09/10 00:42:39;;;;;;;0.63;0.63;;;;;;;17.62;76.00;99953.22;5076983;28;20273;-65
2023/09/10 00:45:09;;;;;;;;;;;;;;;17.56;76.48;99955.97;5076687;28;20040;-66
2023/09/10 00:47:42;;;;;;;0.73;0.70;;;;;;;17.49;76.23;99949.22;5076139;28;19920;-65
2023/09/10 00:50:14;;;;;;;1.00;0.90;;;;;;;17.43;76.28;99961.38;5075249;28;20036;-63
2023/09/10 00:52:47;;;;;;;2.08;1.55;;;;;;;17.42;76.48;99958.81;5076463;28;20049;-63
2023/09/10 00:55:18;;;;;;;2.25;1.63;;;;;;;17.47;76.29;99959.56;5074923;28;20060;-63
2023/09/10 00:57:47;;;;;;;1.08;1.00;;;;;;;17.50;76.47;99961.22;5074893;28;20060;-63
2023/09/10 01:00:16;;;;;;;2.20;0.95;;;;;;;17.51;76.58;99968.97;5075979;28;20064;-64
2023/09/10 01:02:46;;;;;;;0.73;0.73;;;;;;;17.48;76.46;99968.16;5075642;28;20064;-64
2023/09/10 01:05:17;;;;;;;3.20;1.27;;;;;;;17.51;76.54;99975.84;5075991;28;20079;-63
2023/09/10 01:07:47;;;;;;;1.15;0.98;;;;;;;17.53;76.41;99977.53;5074790;28;20107;-63
2023/09/10 01:10:16;;;;;;;0.90;0.90;;;;;;;17.54;76.25;99984.38;5075827;28;20055;-64
2023/09/10 01:12:54;;;;;;;0.65;0.65;;;;;;;17.59;76.40;99976.56;5074637;28;20048;-63
2023/09/10 01:15:30;;;;;;;3.10;1.77;;;;;;;17.43;76.45;99979.47;5074625;28;20048;-63
2023/09/10 01:18:05;;;;;;;1.05;1.00;;;;;;;17.23;76.84;99979.06;5074613;28;20041;-63
2023/09/10 01:20:50;;;;;;;1.35;1.08;;;;;;;17.01;77.44;99982.19;5075859;28;20419;-64
2023/09/10 01:23:29;;;;;;;1.30;0.63;;;;;;;16.83;77.85;99975.66;5075674;28;20132;-63
2023/09/10 01:26:19;;;;;;;0.88;0.88;;;;;;;16.74;78.19;99968.13;5075541;28;20103;-63
2023/09/10 01:28:48;;;;;;;1.20;1.00;;;;;;;16.64;78.77;99971.78;5074206;28;20075;-63
2023/09/10 01:31:17;;;;;;;1.13;0.93;;;;;;;16.64;78.88;99974.38;5075312;28;20110;-64
2023/09/10 01:33:52;;;;;;;3.05;1.38;;;;;;;16.60;79.03;99972.75;5075702;28;20037;-63
2023/09/10 01:36:40;;;;;;;0.75;0.75;;;;;;;16.41;79.31;99973.94;5075480;28;20074;-63
2023/09/10 01:39:15;;;;;;;2.00;1.53;;;;;;;16.28;79.47;99972.47;5075263;28;20048;-64
2023/09/10 01:41:47;;;;;;;1.15;0.98;;;;;;;16.19;79.70;99970.09;5075712;28;20674;-64
2023/09/10 01:44:18;;;;;;;1.02;0.95;;;;;;;16.20;79.72;99967.47;5075200;28;20044;-64
2023/09/10 01:46:48;;;;;;;2.17;0.93;;;;;;;16.12;80.29;99976.22;5073930;28;20048;-64
2023/09/10 01:49:18;;;;;;;0.73;0.70;;;;;;;16.13;80.41;99970.19;5075061;28;20056;-64
2023/09/10 01:51:48;;;;;;;4.70;1.02;;;;;;;16.16;80.53;99968.41;5073775;28;20063;-64
2023/09/10 01:54:16;;;;;;;;;;;;;;;16.19;80.65;99962.34;5074156;28;20123;-64
2023/09/10 01:56:47;;;;;;;1.02;0.95;;;;;;;16.20;80.39;99964.88;5074970;28;19920;-64
2023/09/10 01:59:16;;;;;;;0.57;0.57;;;;;;;16.20;80.48;99958.88;5074026;28;20147;-64
2023/09/10 02:01:44;;;;;;;0.85;0.73;;;;;;;16.18;80.98;99965.78;5073519;28;20037;-64
2023/09/10 02:04:13;;;;;;;1.70;1.60;;;;;;;16.22;80.72;99962.31;5075054;28;20506;-63
2023/09/10 02:06:43;;;;;;;2.08;1.58;;;;;;;16.18;80.93;99961.50;5074710;28;20452;-64
2023/09/10 02:09:11;;;;;;;1.63;1.20;;;;;;;16.24;80.57;99960.53;5074535;28;20048;-64
2023/09/10 02:11:42;;;;;;;1.00;0.90;;;;;;;16.23;80.58;99959.69;5074587;28;20040;-64
2023/09/10 02:14:13;;;;;;;2.08;1.77;;;;;;;16.18;80.60;99965.78;5072652;28;20404;-64
2023/09/10 02:16:42;;;;;;;1.08;1.00;;;;;;;16.20;80.69;99964.03;5074519;28;20090;-64
2023/09/10 02:19:11;;;;;;;1.20;1.10;;;;;;;16.28;80.63;99963.03;5074465;28;20124;-64
2023/09/10 02:21:40;;;;;;;1.23;1.13;;;;;;;16.18;80.61;99965.78;5073203;28;20527;-64
2023/09/10 02:24:09;;;;;;;1.38;1.10;;;;;;;16.08;80.85;99960.81;5074393;28;20066;-64
2023/09/10 02:26:38;;;;;;;2.77;1.10;;;;;;;16.07;81.21;99969.44;5074336;28;20051;-64
2023/09/10 02:29:07;;;;;;;1.83;1.33;;;;;;;15.98;81.20;99961.84;5072964;28;20293;-64
2023/09/10 02:31:37;;;;;;;2.47;1.55;;;;;;;15.95;81.47;99961.09;5072979;28;20041;-63
2023/09/10 02:34:06;;;;;;;0.60;0.60;;;;;;;16.07;81.61;99966.88;5074129;28;20047;-63
2023/09/10 02:36:35;;;;;;;1.20;0.90;;;;;;;16.20;81.33;99964.03;5074002;28;20066;-64
2023/09/10 02:39:04;;;;;;;1.23;1.13;;;;;;;16.10;81.21;99959.06;5073275;28;20281;-64
2023/09/10 02:41:33;;;;;;;2.67;1.30;;;;;;;16.08;81.39;99963.41;5074099;28;20067;-65
2023/09/10 02:44:02;;;;;;;0.93;0.93;;;;;;;16.07;81.70;99964.28;5074024;28;20067;-65
2023/09/10 02:46:31;;;;;;;1.27;1.05;;;;;;;16.09;81.34;99965.09;5074007;28;20044;-64
2023/09/10 02:49:01;;;;;;;1.42;1.10;;;;;;;16.17;81.69;99961.53;5073900;28;20041;-64
2023/09/10 02:51:29;;;;;;;1.23;1.10;;;;;;;16.28;81.68;99962.19;5072799;28;20400;-64
2023/09/10 02:53:58;;;;;;;1.20;1.10;;;;;;;16.30;81.77;99966.41;5055780;28;20460;-66
2023/09/10 02:56:27;;;;;;;0.93;0.90;;;;;;;16.25;81.43;99967.38;5073781;28;20041;-66
2023/09/10 02:58:56;;;;;;;0.60;0.57;;;;;;;16.34;81.70;99977.53;5073844;28;20278;-65
2023/09/10 03:01:25;;;;;;;4.15;1.25;;;;;;;16.43;81.35;99967.88;5072881;28;20079;-65
2023/09/10 03:03:54;;;;;;;0.55;0.55;;;;;;;16.51;81.35;99965.13;5072484;28;20141;-65
2023/09/10 03:06:25;;;;;;;0.88;0.68;;;;;;;16.51;80.80;99965.13;5072571;28;20052;-65
2023/09/10 03:08:54;;;;;;;1.35;1.10;;;;;;;16.55;80.99;99957.38;5074058;28;20047;-66
2023/09/10 03:11:22;;;;;;;1.07;1.00;;;;;;;16.57;80.87;99952.16;5073597;28;20044;-66
2023/09/10 03:13:51;;;;;;;1.07;0.97;;;;;;;16.51;80.80;99959.97;5073233;28;20064;-66
2023/09/10 03:16:20;;;;;;;0.83;0.83;;;;;;;16.48;80.55;99954.91;5072371;28;20273;-64
2023/09/10 03:18:49;;;;;;;1.77;1.47;;;;;;;16.52;80.63;99961.72;5072383;28;20041;-64
2023/09/10 03:21:20;;;;;;;0.57;0.57;;;;;;;16.54;80.26;99957.38;5072611;28;20645;-64
2023/09/10 03:23:51;;;;;;;0.82;0.80;;;;;;;16.54;80.06;99965.97;5073843;28;20090;-64
2023/09/10 03:26:20;;;;;;;1.70;1.27;;;;;;;16.57;79.98;99954.75;5072216;28;20064;-66
2023/09/10 03:28:49;;;;;;;1.00;0.90;;;;;;;16.47;79.72;99958.34;5072120;28;20071;-66
2023/09/10 03:31:17;;;;;;;1.13;1.02;;;;;;;16.30;79.73;99957.84;5073936;28;20033;-66
2023/09/10 03:33:50;;;;;;;2.20;1.95;;;;;;;16.31;79.86;99946.66;5073796;28;20064;-66
2023/09/10 03:36:19;;;;;;;1.08;0.98;;;;;;;16.30;79.73;99944.97;5073215;28;20131;-65
2023/09/10 03:38:47;;;;;;;1.83;1.53;;;;;;;16.21;79.90;99937.41;5072146;28;20044;-64
2023/09/10 03:41:18;;;;;;;;;;;;;;;16.14;79.88;99938.41;5073724;28;20059;-64
2023/09/10 03:43:47;;;;;;;1.45;1.23;;;;;;;16.01;80.40;99938.66;5073244;28;20387;-64
2023/09/10 03:46:16;;;;;;;2.35;1.42;;;;;;;16.07;80.28;99935.97;5073154;28;20049;-65
2023/09/10 03:48:45;;;;;;;1.00;1.00;;;;;;;16.16;80.28;99941.81;5072184;28;20136;-66
2023/09/10 03:51:14;;;;;;;1.38;1.20;;;;;;;16.22;80.22;99941.69;5073289;28;20109;-66
2023/09/10 03:53:43;;;;;;;1.08;0.98;;;;;;;16.27;80.17;99950.19;5072071;28;20066;-64
2023/09/10 03:56:12;;;;;;;2.42;1.63;;;;;;;16.32;79.99;99954.34;5072038;28;20040;-65
2023/09/10 03:58:42;;;;;;;0.57;0.52;;;;;;;16.38;80.10;99953.41;5073105;28;20049;-65
2023/09/10 04:01:11;;;;;;;1.58;1.48;;;;;;;16.43;79.81;99949.00;5071993;28;20040;-66
2023/09/10 04:03:40;;;;;;;0.75;0.75;;;;;;;16.46;79.77;99947.19;5073140;28;20041;-67
2023/09/10 04:06:09;;;;;;;2.47;0.88;;;;;;;16.48;79.60;99952.34;5071874;28;20500;-67
2023/09/10 04:08:38;;;;;;;1.90;1.47;;;;;;;16.46;79.25;99946.38;5072017;28;20049;-66
2023/09/10 04:11:08;;;;;;;2.58;2.08;;;;;;;16.43;79.54;99946.41;5072971;28;20049;-66
2023/09/10 04:13:38;;;;;;;1.23;1.02;;;;;;;16.46;79.17;99946.38;5073005;28;20512;-66
2023/09/10 04:16:08;;;;;;;1.45;0.88;;;;;;;16.46;79.45;99946.38;5073242;28;20090;-64
2023/09/10 04:18:37;;;;;;;0.60;0.60;;;;;;;16.45;79.00;99947.22;5072963;28;20488;-65
2023/09/10 04:21:06;;;;;;;1.55;1.45;;;;;;;16.33;79.12;99944.91;5073294;28;20451;-65
2023/09/10 04:23:36;;;;;;;;;;;;;;;16.13;79.58;99936.69;5073374;28;20040;-63
2023/09/10 04:26:05;;;;;;;0.80;0.80;;;;;;;16.08;79.96;99935.06;5072024;28;20070;-64
2023/09/10 04:28:34;;;;;;;2.23;1.37;;;;;;;16.17;80.03;99939.22;5055127;28;20045;-65
2023/09/10 04:31:03;;;;;;;1.15;1.05;;;;;;;16.19;80.17;99937.47;5071704;28;20369;-64
2023/09/10 04:33:33;;;;;;;0.50;0.50;;;;;;;16.14;80.07;99944.41;5073132;28;20040;-64
2023/09/10 04:36:03;;;;;;;0.55;0.45;;;;;;;16.15;80.42;99940.94;5071413;28;20048;-64
2023/09/10 04:38:32;;;;;;;7.93;1.17;;;;;;;16.17;80.33;99943.50;5073237;28;20051;-65
2023/09/10 04:41:01;;;;;;;0.75;0.65;;;;;;;16.06;80.31;99949.72;5075164;28;20037;-65
2023/09/10 04:43:30;;;;;;;1.90;1.45;;;;;;;16.01;80.26;99953.22;5076595;28;20411;-66
2023/09/10 04:45:59;;;;;;;0.95;0.88;;;;;;;15.99;80.52;99955.84;5075949;28;20036;-67
2023/09/10 04:48:29;;;;;;;1.00;0.90;;;;;;;16.10;80.68;99953.06;5076445;28;20040;-64
2023/09/10 04:50:59;;;;;;;1.17;0.80;;;;;;;16.23;80.70;99961.41;5075059;28;20136;-66
2023/09/10 04:53:28;;;;;;;2.88;2.13;;;;;;;16.34;80.32;99956.91;5074977;28;20218;-67
2023/09/10 04:55:57;;;;;;;1.27;1.17;;;;;;;16.41;80.50;99954.16;5076162;28;20049;-65
2023/09/10 04:58:28;;;;;;;1.40;0.88;;;;;;;16.38;80.54;99971.44;5076111;28;20052;-65
2023/09/10 05:00:57;;;;;;;0.85;0.70;;;;;;;16.45;80.57;99965.28;5074810;28;20048;-66
2023/09/10 05:03:26;;;;;;;1.58;0.90;;;;;;;16.49;80.78;99961.75;5075063;28;20478;-67
2023/09/10 05:06:02;;;;;;;0.98;0.85;;;;;;;16.59;80.87;99958.13;5108784;28;20036;-67
2023/09/10 05:08:32;;;;;;;1.23;0.97;;;;;;;16.70;80.59;99963.91;5074851;28;20059;-66
2023/09/10 05:11:01;;;;;;;0.93;0.90;;;;;;;16.80;80.64;99964.56;5075842;28;20040;-64
2023/09/10 05:13:30;;;;;;;1.20;1.10;;;;;;;16.88;80.52;99970.41;5075850;28;20047;-65
2023/09/10 05:15:59;;;;;;;2.33;1.67;;;;;;;16.88;80.24;99973.00;5074621;28;20060;-67
2023/09/10 05:18:28;;;;;;;0.93;0.85;;;;;;;16.94;80.41;99971.13;5074701;28;20278;-66
2023/09/10 05:20:57;;;;;;;22.33;1.57;;;;;;;17.01;80.04;99977.00;5074661;28;20140;-66
2023/09/10 05:23:28;;;;;;;0.93;0.85;;;;;;;17.08;80.24;99968.25;5074400;28;20183;-66
2023/09/10 05:26:02;;;;;;;1.02;0.80;;;;;;;17.13;80.31;99975.00;5074358;28;20045;-67
2023/09/10 05:28:32;;;;;;;1.42;1.20;;;;;;;17.18;80.10;99975.72;5075520;28;20051;-66
2023/09/10 05:31:04;;;;;;;2.03;1.17;;;;;;;17.24;80.07;99980.78;5074183;28;20071;-65
2023/09/10 05:33:34;;;;;;;2.35;1.45;;;;;;;17.34;80.11;99982.25;5074813;28;20472;-65
2023/09/10 05:36:04;;;;;;;1.38;1.05;;;;;;;17.44;79.95;99978.56;5075169;28;20052;-65
2023/09/10 05:38:35;;;;;;;1.38;1.13;;;;;;;17.52;79.87;99985.28;5075328;28;20056;-65
2023/09/10 05:41:05;;;;;;;1.35;1.25;;;;;;;17.61;80.07;99979.94;5075260;28;20048;-64
2023/09/10 05:43:34;;;;;;;0.93;0.88;;;;;;;17.72;79.68;99977.94;5074075;28;20056;-64
2023/09/10 05:46:03;;;;;;;1.30;1.15;;;;;;;17.80;79.64;99983.75;5074011;28;20041;-64
2023/09/10 05:48:35;;;;;;;1.95;1.40;;;;;;;17.88;79.49;99986.97;5075218;28;20182;-63
2023/09/10 05:51:05;;;;;;;2.17;1.83;;;;;;;18.01;79.29;99988.38;5073764;28;20123;-64
2023/09/10 05:53:35;;;;;;;0.88;0.77;;;;;;;18.16;79.33;99990.56;5073827;28;20079;-64
2023/09/10 05:56:04;;;;;;;1.10;1.00;;;;;;;18.24;79.20;99983.44;5074112;28;20067;-64
2023/09/10 05:58:34;;;;;;;1.98;1.33;;;;;;;18.35;79.03;99985.75;5107693;28;20094;-65
2023/09/10 06:01:04;;;;;;;0.80;0.80;;;;;;;18.47;79.12;99986.28;5073633;28;20050;-65
2023/09/10 06:03:33;;;;;;;1.47;1.23;;;;;;;18.57;78.68;99977.34;5073922;28;20071;-65
2023/09/10 06:06:03;;;;;;;1.20;1.10;;;;;;;18.66;78.57;99979.72;5073430;28;20274;-64
2023/09/10 06:08:32;;;;;;;3.30;0.93;;;;;;;18.79;78.44;99971.59;5073687;28;20044;-64
2023/09/10 06:11:02;;;;;;;1.33;1.23;;;;;;;18.93;78.38;99974.63;5073603;28;20044;-64
2023/09/10 06:13:32;;;;;;;1.35;0.95;;;;;;;19.05;78.01;99974.25;5073700;28;20134;-64
2023/09/10 06:16:02;;;;;;;1.30;1.20;;;;;;;19.16;77.95;99967.00;5074477;28;20052;-64
2023/09/10 06:18:32;;;;;;;1.60;1.48;;;;;;;19.32;77.73;99973.38;5074566;28;20055;-64
2023/09/10 06:21:01;;;;;;;3.73;2.10;;;;;;;19.43;77.31;99973.94;5073712;28;20040;-64
2023/09/10 06:23:30;;;;;;;0.70;0.68;;;;;;;19.57;77.23;99969.16;5073183;28;20285;-64
2023/09/10 06:25:59;;;;;;;1.87;0.93;;;;;;;19.70;76.56;99975.59;5073451;28;20492;-65
2023/09/10 06:28:30;;;;;;;1.00;0.90;;;;;;;19.80;75.91;99970.97;5074192;28;20288;-64
2023/09/10 06:30:58;;;;;;;0.77;0.75;;;;;;;19.88;75.12;99972.41;5073176;28;20047;-64
2023/09/10 06:33:28;;;;;;;2.42;2.22;;;;;;;19.95;74.81;99971.31;5073294;28;20044;-64
2023/09/10 06:35:57;;;;;;;0.68;0.68;;;;;;;20.00;74.57;99979.78;5072832;28;20052;-64
2023/09/10 06:38:26;;;;;;;1.77;1.27;;;;;;;20.08;74.40;99975.16;5073116;28;20467;-64
2023/09/10 06:40:55;;;;;;;2.03;1.23;;;;;;;20.21;74.22;99967.78;5072960;28;20055;-64
2023/09/10 06:43:24;;;;;;;1.05;0.98;;;;;;;20.32;73.95;99981.28;5072762;28;20515;-64
2023/09/10 06:46:12;;;;;;;0.90;0.90;;;;;;;20.35;73.65;99975.09;5073912;28;20053;-64
2023/09/10 06:48:41;;;;;;;0.85;0.80;;;;;;;20.43;73.17;99980.88;5074240;28;20561;-65
2023/09/10 06:51:10;;;;;;;2.07;1.57;;;;;;;20.55;72.76;99983.03;5073899;28;20040;-64
2023/09/10 06:53:39;;;;;;;1.65;1.20;;;;;;;20.68;72.60;99985.09;5074183;28;20293;-64
2023/09/10 06:56:08;;;;;;;1.83;1.42;;;;;;;20.76;72.18;99984.81;5073751;28;20055;-65
2023/09/10 06:58:37;;;;;;;1.17;1.08;;;;;;;20.87;71.95;99990.47;5074105;28;20044;-64
2023/09/10 07:01:08;;;;;;;0.80;0.80;;;;;;;20.96;71.92;99992.72;5073169;28;20416;-64
2023/09/10 07:03:39;;;;;;;4.45;1.55;;;;;;;21.00;71.44;99991.69;5073593;28;20056;-65
2023/09/10 07:06:08;;;;;;;2.28;0.68;;;;;;;21.05;71.15;99978.56;5074029;28;20503;-65
2023/09/10 07:08:37;;;;;;;1.08;0.98;;;;;;;21.14;71.03;99978.22;5073832;28;20068;-65
2023/09/10 07:11:07;;;;;;;;;;;;;;;21.15;70.74;99980.75;5074024;28;20135;-64
2023/09/10 07:13:37;;;;;;;1.30;1.20;;;;;;;21.30;70.98;99984.50;5072279;28;19943;-64
2023/09/10 07:16:06;;;;;;;1.58;1.27;;;;;;;21.43;70.47;99980.50;5073622;28;20052;-64
2023/09/10 07:18:35;;;;;;;1.35;1.25;;;;;;;21.51;69.97;99987.97;5073497;28;20148;-64
2023/09/10 07:21:05;;;;;;;1.50;1.13;;;;;;;21.59;69.73;99980.75;5073488;28;20044;-64
2023/09/10 07:23:34;;;;;;;2.47;1.63;;;;;;;21.73;69.58;99974.06;5073823;28;20094;-64
2023/09/10 07:26:03;;;;;;;1.45;1.35;;;;;;;21.82;69.12;99984.06;5073489;28;20041;-64
2023/09/10 07:28:32;;;;;;;2.17;1.13;;;;;;;21.89;68.76;99977.75;5073710;28;20032;-64
2023/09/10 07:31:01;;;;;;;0.85;0.85;;;;;;;22.01;68.48;99976.38;5073312;28;20044;-64
2023/09/10 07:33:30;;;;;;;3.13;1.83;;;;;;;22.12;68.27;99981.97;5073753;28;20091;-64
2023/09/10 07:35:58;;;;;;;0.57;0.57;;;;;;;22.28;67.86;99983.00;5073088;28;20052;-65
2023/09/10 07:38:31;;;;;;;0.82;0.80;;;;;;;22.38;67.80;99981.69;5073628;28;20761;-64
2023/09/10 07:41:00;;;;;;;0.85;0.85;;;;;;;22.53;67.53;99986.19;5073731;28;20036;-65
2023/09/10 07:43:29;;;;;;;0.70;0.70;;;;;;;22.64;67.23;99986.59;5073194;28;20070;-65
2023/09/10 07:45:58;;;;;;;2.45;1.05;;;;;;;22.73;66.89;99990.53;5073834;28;20036;-65
2023/09/10 07:48:27;;;;;;;;;;;;;;;22.82;66.30;99990.13;5073886;28;20080;-65
2023/09/10 07:50:56;;;;;;;4.23;1.43;;;;;;;22.92;65.99;99985.31;5073152;28;19920;-65
2023/09/10 07:53:25;;;;;;;1.20;1.10;;;;;;;23.04;65.77;99990.81;5073120;28;20051;-65
2023/09/10 07:55:56;;;;;;;0.50;0.50;;;;;;;23.20;65.29;99985.75;5073162;28;20037;-64
2023/09/10 07:58:25;;;;;;;0.80;0.80;;;;;;;23.33;64.57;99986.84;5073451;28;20055;-65
2023/09/10 08:00:55;;;;;;;0.77;0.77;;;;;;;23.50;64.20;99986.91;5073113;28;20071;-65
2023/09/10 08:03:24;;;;;;;0.85;0.85;;;;;;;23.62;63.90;99986.31;5071950;28;20068;-65
2023/09/10 08:05:54;;;;;;;1.63;1.17;;;;;;;23.70;63.93;99981.56;5073008;28;20048;-65
2023/09/10 08:08:22;;;;;;;1.23;0.98;;;;;;;23.84;63.60;99983.47;5073035;28;20045;-66
2023/09/10 08:10:51;;;;;;;0.80;0.80;;;;;;;23.94;63.02;99985.56;5072958;28;20044;-65
2023/09/10 08:13:22;;;;;;;1.63;1.17;;;;;;;24.02;62.70;99981.72;5074613;28;20510;-65
2023/09/10 08:15:51;;;;;;;1.38;1.17;;;;;;;24.11;62.55;99976.06;5077107;28;20415;-65
2023/09/10 08:18:20;;;;;;;;;;;;;;;24.24;62.15;99977.94;5077218;28;20048;-65
2023/09/10 08:20:49;;;;;;;0.70;0.70;;;;;;;24.32;62.19;99975.78;5076820;28;19927;-65
2023/09/10 08:23:17;;;;;;;1.10;1.00;;;;;;;24.40;61.56;99978.00;5076792;28;20119;-66
2023/09/10 08:25:52;;;;;;;1.25;1.15;;;;;;;24.52;61.14;99977.34;5076682;28;20141;-65
2023/09/10 08:28:22;;;;;;;1.05;0.95;;;;;;;24.67;60.62;99981.75;5076609;28;20047;-66
2023/09/10 08:30:53;;;;;;;1.67;1.40;;;;;;;24.72;59.88;99979.72;5076820;28;20040;-65
2023/09/10 08:33:24;;;;;;;1.17;1.08;;;;;;;24.86;59.91;99982.47;5076755;28;20052;-65
2023/09/10 08:35:55;;;;;;;1.98;1.25;;;;;;;24.93;59.40;99983.81;5076288;28;20064;-66
2023/09/10 08:38:24;;;;;;;1.23;0.82;;;;;;;24.98;59.10;99981.81;5077073;28;20052;-66
2023/09/10 08:41:05;;;;;;;2.85;1.55;;;;;;;25.08;58.86;99982.97;5076383;28;20123;-65
2023/09/10 08:43:46;;;;;;;1.15;0.90;;;;;;;25.24;59.12;99981.19;5076423;28;20100;-65
2023/09/10 08:46:15;;;;;;;0.50;0.50;;;;;;;25.38;57.56;99974.38;5076572;28;20484;-66
2023/09/10 08:48:46;;;;;;;0.90;0.85;;;;;;;25.51;57.81;99970.13;5076215;28;20039;-66
2023/09/10 08:51:16;;;;;;;0.80;0.80;;;;;;;25.62;57.05;99965.16;5076194;28;20041;-66
2023/09/10 08:53:49;;;;;;;1.10;1.00;;;;;;;25.81;57.20;99971.00;5076115;28;20044;-66
2023/09/10 08:56:18;;;;;;;0.75;0.75;;;;;;;25.92;56.01;99971.19;5076242;28;20048;-66
2023/09/10 08:58:49;;;;;;;0.95;0.82;;;;;;;25.99;56.50;99967.28;5076053;28;20037;-66
2023/09/10 09:01:19;;;;;;;0.77;0.75;;;;;;;26.09;55.78;99978.91;5076092;28;20049;-66
2023/09/10 09:03:49;;;;;;;0.82;0.82;;;;;;;26.12;55.28;99970.91;5075939;28;20040;-66
2023/09/10 09:06:18;;;;;;;0.88;0.88;;;;;;;26.25;54.87;99976.25;5075921;28;20072;-66
2023/09/10 09:08:52;;;;;;;0.95;0.90;;;;;;;26.32;54.36;99970.53;5075888;28;20049;-66
2023/09/10 09:11:27;;;;;;;1.05;0.95;;;;;;;26.40;53.52;99963.06;5075836;28;20047;-66
2023/09/10 09:13:59;;;;;;;1.52;1.08;;;;;;;26.48;53.26;99960.81;5076104;28;20056;-66
2023/09/10 09:16:28;;;;;;;2.20;1.25;;;;;;;26.52;52.83;99959.69;5075692;28;20056;-66
2023/09/10 09:18:58;;;;;;;1.00;0.90;;;;;;;26.57;52.39;99962.88;5075648;28;20040;-66
2023/09/10 09:21:30;;;;;;;1.00;0.90;;;;;;;26.72;53.38;99953.22;5074612;28;20101;-66
2023/09/10 09:24:00;;;;;;;1.15;0.88;;;;;;;26.95;53.11;99949.16;5074928;28;20135;-66
2023/09/10 09:26:29;;;;;;;1.52;0.90;;;;;;;27.11;53.32;99949.88;5075892;28;20048;-66
2023/09/10 09:29:00;;;;;;;2.08;1.08;;;;;;;27.14;52.38;99945.28;5075512;28;20044;-66
2023/09/10 09:31:29;;;;;;;1.80;1.13;;;;;;;27.15;51.43;99943.50;5074182;28;20040;-66
2023/09/10 09:33:58;;;;;;;0.73;0.73;;;;;;;27.09;51.16;99941.28;5075851;28;20044;-66
2023/09/10 09:36:28;;;;;;;1.00;0.68;;;;;;;27.09;50.88;99938.66;5075136;28;20083;-66
2023/09/10 09:38:57;;;;;;;0.68;0.65;;;;;;;27.08;50.19;99939.59;5057956;28;20051;-67
2023/09/10 09:41:25;;;;;;;0.80;0.80;;;;;;;27.07;50.01;99935.28;5075258;28;20044;-67
2023/09/10 09:43:59;;;;;;;1.40;1.05;;;;;;;27.12;50.95;99930.59;5075155;28;20523;-66
2023/09/10 09:46:32;;;;;;;1.27;0.98;;;;;;;27.24;50.81;99932.41;5075256;28;20048;-66
2023/09/10 09:49:01;;;;;;;0.50;0.50;;;;;;;27.26;50.09;99927.91;5075118;28;20045;-66
2023/09/10 09:51:30;;;;;;;0.90;0.63;;;;;;;27.38;50.05;99921.06;5075274;28;20040;-66
2023/09/10 09:54:00;;;;;;;1.42;1.00;;;;;;;27.41;49.36;99924.31;5074998;28;20446;-66
2023/09/10 09:56:30;;;;;;;1.10;0.80;;;;;;;27.62;49.85;99925.50;5074970;28;20051;-66
2023/09/10 09:59:01;;;;;;;1.25;1.00;;;;;;;27.74;49.31;99929.94;5075211;28;20053;-67
2023/09/10 10:01:31;;;;;;;1.00;0.98;;;;;;;27.77;48.91;99919.25;5074863;28;20056;-67
2023/09/10 10:04:00;;;;;;;0.70;0.70;;;;;;;27.96;48.84;99918.81;5075118;28;20044;-67
2023/09/10 10:06:29;;;;;;;1.45;1.10;;;;;;;28.07;48.49;99921.59;5073470;28;20455;-67
2023/09/10 10:09:08;;;;;;;0.82;0.77;;;;;;;28.33;48.60;99912.75;5074763;28;20094;-67
2023/09/10 10:11:37;;;;;;;1.38;1.15;;;;;;;28.59;46.98;99918.78;5074873;28;20041;-66
2023/09/10 10:14:08;;;;;;;0.60;0.57;;;;;;;28.67;46.45;99916.50;5074560;28;20492;-67
2023/09/10 10:16:38;;;;;;;2.40;1.27;;;;;;;28.69;46.33;99914.59;5074854;28;20055;-67
2023/09/10 10:19:08;;;;;;;0.75;0.73;;;;;;;28.67;46.23;99918.28;5074425;28;20056;-67
2023/09/10 10:21:37;;;;;;;4.07;2.05;;;;;;;28.81;46.43;99908.47;5074493;28;20045;-67
2023/09/10 10:24:07;;;;;;;2.17;0.90;;;;;;;28.87;46.44;99907.16;5074317;28;20044;-67
2023/09/10 10:26:37;;;;;;;0.90;0.85;;;;;;;28.95;46.52;99905.66;5074403;28;20120;-67
2023/09/10 10:29:08;;;;;;;0.63;0.60;;;;;;;29.01;45.17;99905.22;5074546;28;20404;-67
2023/09/10 10:31:41;;;;;;;1.00;0.90;;;;;;;29.04;43.81;99904.16;5073008;28;20044;-67
2023/09/10 10:34:15;;;;;;;1.15;0.90;;;;;;;29.09;43.46;99894.13;5074167;28;20048;-67
2023/09/10 10:36:58;;;;;;;0.60;0.60;;;;;;;29.16;43.65;99887.47;5073163;28;20044;-67
2023/09/10 10:39:39;;;;;;;1.15;1.00;;;;;;;29.20;43.75;99887.16;5074147;28;20123;-67
2023/09/10 10:42:11;;;;;;;1.00;0.90;;;;;;;29.39;43.92;99884.03;5074066;28;20056;-66
2023/09/10 10:44:44;;;;;;;1.45;0.95;;;;;;;29.53;43.29;99888.25;5074036;28;20110;-66
2023/09/10 10:47:18;;;;;;;0.98;0.93;;;;;;;29.59;43.00;99885.13;5074599;28;20048;-66
2023/09/10 10:49:53;;;;;;;1.00;0.95;;;;;;;29.74;42.64;99881.34;5073978;28;20048;-67
2023/09/10 10:52:25;;;;;;;0.93;0.80;;;;;;;29.84;41.86;99879.72;5072996;28;20074;-67
2023/09/10 10:54:55;;;;;;;0.75;0.65;;;;;;;29.95;41.20;99882.34;5073816;28;20496;-66
2023/09/10 10:57:25;;;;;;;1.45;1.13;;;;;;;29.88;39.91;99881.16;5073813;28;20051;-67
2023/09/10 10:59:56;;;;;;;0.50;0.50;;;;;;;30.04;39.83;99871.13;5074114;28;20044;-67
2023/09/10 11:02:25;;;;;;;1.30;0.85;;;;;;;30.03;39.63;99868.59;5074029;28;20499;-67
2023/09/10 11:04:58;;;;;;;1.40;0.95;;;;;;;30.14;40.20;99871.25;5073983;28;20496;-67
2023/09/10 11:07:29;;;;;;;1.27;0.95;;;;;;;30.07;39.92;99870.88;5074005;28;20059;-67
2023/09/10 11:09:59;;;;;;;0.73;0.60;;;;;;;30.16;40.97;99869.31;5074013;28;20048;-67
2023/09/10 11:12:28;;;;;;;0.98;0.88;;;;;;;30.16;40.33;99867.50;5073518;28;20044;-67
2023/09/10 11:15:13;;;;;;;0.60;0.60;;;;;;;30.24;40.10;99865.13;5073541;28;20048;-67
2023/09/10 11:17:42;;;;;;;1.02;1.00;;;;;;;30.18;39.55;99868.25;5072509;28;20102;-68
2023/09/10 11:20:12;;;;;;;0.40;0.40;;;;;;;30.28;40.29;99869.16;5073499;28;20047;-68
2023/09/10 11:23:03;;;;;;;0.77;0.70;;;;;;;30.30;39.65;99862.00;5073820;28;20396;-67
2023/09/10 11:25:32;;;;;;;0.60;0.60;;;;;;;30.21;40.09;99862.72;5073399;28;20059;-67
2023/09/10 11:28:03;;;;;;;0.55;0.55;;;;;;;30.29;40.07;99859.47;5073702;28;20090;-67
2023/09/10 11:30:33;;;;;;;0.98;0.90;;;;;;;30.37;40.47;99852.69;5073507;28;20048;-67
2023/09/10 11:33:23;;;;;;;1.05;0.85;;;;;;;30.35;39.67;99854.59;5073585;28;20531;-69
2023/09/10 11:35:53;;;;;;;0.80;0.80;;;;;;;30.42;39.50;99842.63;5073168;28;20052;-67
2023/09/10 11:38:23;;;;;;;0.77;0.77;;;;;;;30.38;39.46;99843.81;5073332;28;20400;-67
2023/09/10 11:40:52;;;;;;;0.80;0.68;;;;;;;30.54;39.68;99837.31;5073288;28;20045;-67
2023/09/10 11:43:21;;;;;;;0.80;0.80;;;;;;;30.54;38.97;99835.53;5073357;28;20040;-68
2023/09/10 11:45:52;;;;;;;0.82;0.82;;;;;;;30.50;38.37;99834.94;5073530;28;20056;-68
2023/09/10 11:48:21;;;;;;;1.60;1.02;;;;;;;30.52;37.78;99835.63;5076723;28;20048;-68